sensor_id;sensor_type;location;lat;lon;timestamp;P1;durP1;ratioP1;P2;durP2;ratioP2
1054;SDS011;516;51.482;7.120;2023-06-22T00:02:54;20.60;;;19.03;;
1054;SDS011;516;51.482;7.120;2023-06-22T00:08:42;20.57;;;19.10;;
1054;SDS011;516;51.482;7.120;2023-06-22T00:14:29;21.07;;;19.50;;
1054;SDS011;516;51.482;7.120;2023-06-22T00:20:17;22.53;;;20.83;;
1054;SDS011;516;51.482;7.120;2023-06-22T00:26:05;21.03;;;19.33;;
1054;SDS011;516;51.482;7.120;2023-06-22T00:31:52;21.67;;;19.80;;
1054;SDS011;516;51.482;7.120;2023-06-22T00:37:40;20.50;;;19.20;;
1054;SDS011;516;51.482;7.120;2023-06-22T00:43:29;20.93;;;19.27;;
1054;SDS011;516;51.482;7.120;2023-06-22T00:49:10;21.43;;;19.73;;
1054;SDS011;516;51.482;7.120;2023-06-22T00:54:58;20.27;;;18.80;;
1054;SDS011;516;51.482;7.120;2023-06-22T01:00:49;20.20;;;18.43;;
1054;SDS011;516;51.482;7.120;2023-06-22T01:06:40;20.40;;;18.97;;
1054;SDS011;516;51.482;7.120;2023-06-22T01:25:25;19.70;;;18.60;;
1054;SDS011;516;51.482;7.120;2023-06-22T01:31:37;21.57;;;19.97;;
1054;SDS011;516;51.482;7.120;2023-06-22T01:37:27;20.57;;;19.27;;
1054;SDS011;516;51.482;7.120;2023-06-22T01:43:16;20.70;;;19.10;;
1054;SDS011;516;51.482;7.120;2023-06-22T01:49:04;18.90;;;17.70;;
1054;SDS011;516;51.482;7.120;2023-06-22T01:54:53;19.70;;;18.50;;
1054;SDS011;516;51.482;7.120;2023-06-22T02:00:41;22.13;;;20.07;;
1054;SDS011;516;51.482;7.120;2023-06-22T02:06:55;20.97;;;19.40;;
1054;SDS011;516;51.482;7.120;2023-06-22T02:12:45;21.73;;;20.03;;
1054;SDS011;516;51.482;7.120;2023-06-22T02:18:34;22.23;;;20.73;;
1054;SDS011;516;51.482;7.120;2023-06-22T02:24:23;24.83;;;22.50;;
1054;SDS011;516;51.482;7.120;2023-06-22T02:30:11;23.20;;;21.60;;
1054;SDS011;516;51.482;7.120;2023-06-22T02:35:59;24.57;;;22.40;;
1054;SDS011;516;51.482;7.120;2023-06-22T02:41:48;23.27;;;21.47;;
1054;SDS011;516;51.482;7.120;2023-06-22T02:51:14;25.87;;;23.87;;
1054;SDS011;516;51.482;7.120;2023-06-22T02:57:02;22.50;;;20.67;;
1054;SDS011;516;51.482;7.120;2023-06-22T03:02:50;24.87;;;22.87;;
1054;SDS011;516;51.482;7.120;2023-06-22T03:08:38;23.10;;;21.10;;
1054;SDS011;516;51.482;7.120;2023-06-22T03:14:25;23.40;;;21.70;;
1054;SDS011;516;51.482;7.120;2023-06-22T03:20:13;22.77;;;20.97;;
1054;SDS011;516;51.482;7.120;2023-06-22T03:26:01;24.27;;;22.17;;
1054;SDS011;516;51.482;7.120;2023-06-22T03:31:49;24.70;;;22.60;;
1054;SDS011;516;51.482;7.120;2023-06-22T03:37:36;23.90;;;21.80;;
1054;SDS011;516;51.482;7.120;2023-06-22T03:43:25;26.43;;;24.33;;
1054;SDS011;516;51.482;7.120;2023-06-22T03:49:11;25.07;;;23.07;;
1054;SDS011;516;51.482;7.120;2023-06-22T03:54:59;27.87;;;25.67;;
1054;SDS011;516;51.482;7.120;2023-06-22T04:00:50;25.70;;;23.30;;
1054;SDS011;516;51.482;7.120;2023-06-22T04:06:39;27.90;;;25.33;;
1054;SDS011;516;51.482;7.120;2023-06-22T04:12:26;26.60;;;24.40;;
1054;SDS011;516;51.482;7.120;2023-06-22T04:18:14;27.00;;;24.70;;
1054;SDS011;516;51.482;7.120;2023-06-22T04:24:03;25.97;;;24.03;;
1054;SDS011;516;51.482;7.120;2023-06-22T04:29:51;25.50;;;23.50;;
1054;SDS011;516;51.482;7.120;2023-06-22T04:35:39;26.40;;;24.10;;
1054;SDS011;516;51.482;7.120;2023-06-22T04:41:28;25.53;;;23.53;;
1054;SDS011;516;51.482;7.120;2023-06-22T04:57:03;27.50;;;25.40;;
1054;SDS011;516;51.482;7.120;2023-06-22T05:02:56;26.37;;;24.40;;
1054;SDS011;516;51.482;7.120;2023-06-22T05:08:45;29.93;;;27.03;;
1054;SDS011;516;51.482;7.120;2023-06-22T05:14:33;29.20;;;26.90;;
1054;SDS011;516;51.482;7.120;2023-06-22T05:20:20;28.20;;;26.07;;
1054;SDS011;516;51.482;7.120;2023-06-22T05:26:08;28.03;;;25.40;;
1054;SDS011;516;51.482;7.120;2023-06-22T05:31:57;25.77;;;23.87;;
1054;SDS011;516;51.482;7.120;2023-06-22T05:37:45;26.53;;;24.40;;
1054;SDS011;516;51.482;7.120;2023-06-22T05:43:33;27.57;;;24.70;;
1054;SDS011;516;51.482;7.120;2023-06-22T05:49:13;26.43;;;23.97;;
1054;SDS011;516;51.482;7.120;2023-06-22T05:55:01;27.30;;;24.93;;
1054;SDS011;516;51.482;7.120;2023-06-22T06:00:49;27.53;;;24.80;;
1054;SDS011;516;51.482;7.120;2023-06-22T06:06:37;24.37;;;22.27;;
1054;SDS011;516;51.482;7.120;2023-06-22T06:12:25;27.97;;;25.80;;
1054;SDS011;516;51.482;7.120;2023-06-22T06:18:13;26.17;;;24.20;;
1054;SDS011;516;51.482;7.120;2023-06-22T06:24:00;27.70;;;25.60;;
1054;SDS011;516;51.482;7.120;2023-06-22T06:29:49;27.40;;;25.10;;
1054;SDS011;516;51.482;7.120;2023-06-22T06:35:37;26.50;;;24.50;;
1054;SDS011;516;51.482;7.120;2023-06-22T06:41:25;25.60;;;23.57;;
1054;SDS011;516;51.482;7.120;2023-06-22T06:57:01;32.23;;;25.70;;
1054;SDS011;516;51.482;7.120;2023-06-22T07:02:50;28.27;;;26.23;;
1054;SDS011;516;51.482;7.120;2023-06-22T07:08:20;28.67;;;26.57;;
1054;SDS011;516;51.482;7.120;2023-06-22T07:14:07;28.53;;;25.60;;
1054;SDS011;516;51.482;7.120;2023-06-22T07:19:55;27.57;;;25.27;;
1054;SDS011;516;51.482;7.120;2023-06-22T07:25:43;28.33;;;26.23;;
1054;SDS011;516;51.482;7.120;2023-06-22T07:31:31;29.13;;;26.87;;
1054;SDS011;516;51.482;7.120;2023-06-22T07:37:19;26.27;;;24.47;;
1054;SDS011;516;51.482;7.120;2023-06-22T07:43:07;27.20;;;25.10;;
1054;SDS011;516;51.482;7.120;2023-06-22T07:48:54;26.20;;;24.20;;
1054;SDS011;516;51.482;7.120;2023-06-22T07:54:42;26.10;;;23.70;;
1054;SDS011;516;51.482;7.120;2023-06-22T08:00:30;27.00;;;24.70;;
1054;SDS011;516;51.482;7.120;2023-06-22T08:06:17;22.93;;;20.80;;
1054;SDS011;516;51.482;7.120;2023-06-22T08:12:05;28.00;;;23.27;;
1054;SDS011;516;51.482;7.120;2023-06-22T08:17:36;23.80;;;21.50;;
1054;SDS011;516;51.482;7.120;2023-06-22T08:23:24;25.53;;;22.93;;
1054;SDS011;516;51.482;7.120;2023-06-22T08:29:12;23.73;;;21.33;;
1054;SDS011;516;51.482;7.120;2023-06-22T08:34:59;21.47;;;19.23;;
1054;SDS011;516;51.482;7.120;2023-06-22T08:40:47;24.73;;;22.43;;
1054;SDS011;516;51.482;7.120;2023-06-22T08:46:35;23.43;;;21.37;;
1054;SDS011;516;51.482;7.120;2023-06-22T08:52:24;25.70;;;23.50;;
1054;SDS011;516;51.482;7.120;2023-06-22T08:58:12;27.77;;;25.47;;
1054;SDS011;516;51.482;7.120;2023-06-22T09:04:00;27.63;;;25.60;;
1054;SDS011;516;51.482;7.120;2023-06-22T09:09:48;26.50;;;23.60;;
1054;SDS011;516;51.482;7.120;2023-06-22T09:15:36;27.27;;;25.00;;
1054;SDS011;516;51.482;7.120;2023-06-22T09:21:24;28.93;;;26.63;;
1054;SDS011;516;51.482;7.120;2023-06-22T09:27:11;27.80;;;25.70;;
1054;SDS011;516;51.482;7.120;2023-06-22T09:32:59;28.43;;;25.93;;
1054;SDS011;516;51.482;7.120;2023-06-22T09:38:48;28.90;;;26.80;;
1054;SDS011;516;51.482;7.120;2023-06-22T09:44:42;26.77;;;24.77;;
1054;SDS011;516;51.482;7.120;2023-06-22T09:50:30;27.67;;;25.07;;
1054;SDS011;516;51.482;7.120;2023-06-22T09:56:17;27.97;;;25.80;;
1054;SDS011;516;51.482;7.120;2023-06-22T10:02:05;30.83;;;28.40;;
1054;SDS011;516;51.482;7.120;2023-06-22T10:07:54;28.67;;;26.53;;
1054;SDS011;516;51.482;7.120;2023-06-22T10:13:42;27.47;;;25.60;;
1054;SDS011;516;51.482;7.120;2023-06-22T10:19:30;27.17;;;25.07;;
1054;SDS011;516;51.482;7.120;2023-06-22T10:25:17;27.83;;;25.77;;
1054;SDS011;516;51.482;7.120;2023-06-22T10:31:05;28.67;;;26.70;;
1054;SDS011;516;51.482;7.120;2023-06-22T10:36:52;26.90;;;25.00;;
1054;SDS011;516;51.482;7.120;2023-06-22T10:42:40;26.80;;;25.10;;
1054;SDS011;516;51.482;7.120;2023-06-22T10:51:50;24.23;;;22.73;;
1054;SDS011;516;51.482;7.120;2023-06-22T10:57:37;27.47;;;25.00;;
1054;SDS011;516;51.482;7.120;2023-06-22T11:03:28;25.73;;;23.83;;
1054;SDS011;516;51.482;7.120;2023-06-22T11:06:10;26.10;;;24.40;;
1054;SDS011;516;51.482;7.120;2023-06-22T11:08:36;25.73;;;24.13;;
1054;SDS011;516;51.482;7.120;2023-06-22T11:14:24;25.63;;;23.93;;
1054;SDS011;516;51.482;7.120;2023-06-22T11:20:12;26.70;;;24.90;;
1054;SDS011;516;51.482;7.120;2023-06-22T11:25:59;26.23;;;24.13;;
1054;SDS011;516;51.482;7.120;2023-06-22T11:31:47;21.17;;;19.17;;
1054;SDS011;516;51.482;7.120;2023-06-22T11:37:35;21.50;;;19.60;;
1054;SDS011;516;51.482;7.120;2023-06-22T11:43:22;24.07;;;22.07;;
1054;SDS011;516;51.482;7.120;2023-06-22T11:52:33;26.40;;;23.80;;
1054;SDS011;516;51.482;7.120;2023-06-22T11:58:21;26.83;;;24.13;;
1054;SDS011;516;51.482;7.120;2023-06-22T12:04:09;29.73;;;25.00;;
1054;SDS011;516;51.482;7.120;2023-06-22T12:09:58;33.70;;;30.23;;
1054;SDS011;516;51.482;7.120;2023-06-22T12:15:45;32.87;;;29.40;;
1054;SDS011;516;51.482;7.120;2023-06-22T12:21:33;33.50;;;29.13;;
1054;SDS011;516;51.482;7.120;2023-06-22T12:27:21;40.70;;;36.50;;
1054;SDS011;516;51.482;7.120;2023-06-22T12:33:09;39.10;;;35.10;;
1054;SDS011;516;51.482;7.120;2023-06-22T12:35:41;39.50;;;35.40;;
1054;SDS011;516;51.482;7.120;2023-06-22T12:38:06;43.90;;;36.47;;
1054;SDS011;516;51.482;7.120;2023-06-22T12:43:55;44.30;;;37.60;;
1054;SDS011;516;51.482;7.120;2023-06-22T12:53:05;43.70;;;39.10;;
1054;SDS011;516;51.482;7.120;2023-06-22T12:58:52;45.27;;;40.57;;
1054;SDS011;516;51.482;7.120;2023-06-22T13:04:40;50.90;;;40.33;;
1054;SDS011;516;51.482;7.120;2023-06-22T13:10:28;47.27;;;40.00;;
1054;SDS011;516;51.482;7.120;2023-06-22T13:16:16;42.40;;;36.80;;
1054;SDS011;516;51.482;7.120;2023-06-22T13:22:03;40.80;;;36.60;;
1054;SDS011;516;51.482;7.120;2023-06-22T13:27:51;37.80;;;34.10;;
1054;SDS011;516;51.482;7.120;2023-06-22T13:33:39;32.20;;;29.27;;
1054;SDS011;516;51.482;7.120;2023-06-22T13:39:27;28.73;;;26.20;;
1054;SDS011;516;51.482;7.120;2023-06-22T13:45:15;24.33;;;19.63;;
1054;SDS011;516;51.482;7.120;2023-06-22T13:50:56;25.43;;;20.27;;
1054;SDS011;516;51.482;7.120;2023-06-22T13:56:43;21.77;;;18.93;;
1054;SDS011;516;51.482;7.120;2023-06-22T14:02:31;21.43;;;19.27;;
1054;SDS011;516;51.482;7.120;2023-06-22T14:08:19;19.23;;;17.43;;
1054;SDS011;516;51.482;7.120;2023-06-22T14:14:08;20.67;;;18.70;;
1054;SDS011;516;51.482;7.120;2023-06-22T14:19:55;20.30;;;18.20;;
1054;SDS011;516;51.482;7.120;2023-06-22T14:25:43;18.80;;;17.20;;
1054;SDS011;516;51.482;7.120;2023-06-22T14:31:31;18.73;;;17.00;;
1054;SDS011;516;51.482;7.120;2023-06-22T14:37:19;19.20;;;17.10;;
1054;SDS011;516;51.482;7.120;2023-06-22T14:43:07;19.90;;;18.10;;
1054;SDS011;516;51.482;7.120;2023-06-22T14:58:47;19.30;;;17.70;;
1054;SDS011;516;51.482;7.120;2023-06-22T15:04:35;26.47;;;18.77;;
1054;SDS011;516;51.482;7.120;2023-06-22T15:10:23;16.07;;;14.47;;
1054;SDS011;516;51.482;7.120;2023-06-22T15:16:11;20.70;;;18.50;;
1054;SDS011;516;51.482;7.120;2023-06-22T15:21:59;21.03;;;15.47;;
1054;SDS011;516;51.482;7.120;2023-06-22T15:27:47;23.93;;;21.47;;
1054;SDS011;516;51.482;7.120;2023-06-22T15:33:34;24.57;;;22.03;;
1054;SDS011;516;51.482;7.120;2023-06-22T15:39:23;25.07;;;22.47;;
1054;SDS011;516;51.482;7.120;2023-06-22T15:45:13;29.97;;;21.30;;
1054;SDS011;516;51.482;7.120;2023-06-22T15:50:56;22.30;;;19.87;;
1054;SDS011;516;51.482;7.120;2023-06-22T15:56:43;30.83;;;21.20;;
1054;SDS011;516;51.482;7.120;2023-06-22T16:02:31;20.30;;;18.20;;
1054;SDS011;516;51.482;7.120;2023-06-22T16:08:19;24.17;;;21.57;;
1054;SDS011;516;51.482;7.120;2023-06-22T16:14:06;26.07;;;22.60;;
1054;SDS011;516;51.482;7.120;2023-06-22T16:19:55;28.43;;;21.40;;
1054;SDS011;516;51.482;7.120;2023-06-22T16:25:45;24.73;;;21.13;;
1054;SDS011;516;51.482;7.120;2023-06-22T16:31:33;26.70;;;22.57;;
1054;SDS011;516;51.482;7.120;2023-06-22T16:37:20;23.00;;;20.20;;
1054;SDS011;516;51.482;7.120;2023-06-22T16:43:08;23.97;;;19.23;;
1054;SDS011;516;51.482;7.120;2023-06-22T16:58:46;24.80;;;20.90;;
1054;SDS011;516;51.482;7.120;2023-06-22T17:04:34;27.40;;;20.77;;
1054;SDS011;516;51.482;7.120;2023-06-22T17:10:23;23.17;;;20.87;;
1054;SDS011;516;51.482;7.120;2023-06-22T17:16:11;24.23;;;19.67;;
1054;SDS011;516;51.482;7.120;2023-06-22T17:21:59;25.13;;;21.40;;
1054;SDS011;516;51.482;7.120;2023-06-22T17:27:47;26.60;;;22.10;;
1054;SDS011;516;51.482;7.120;2023-06-22T17:33:38;26.60;;;22.50;;
1054;SDS011;516;51.482;7.120;2023-06-22T17:39:27;27.57;;;24.23;;
1054;SDS011;516;51.482;7.120;2023-06-22T17:45:19;27.20;;;24.07;;
1054;SDS011;516;51.482;7.120;2023-06-22T17:50:57;35.33;;;29.10;;
1054;SDS011;516;51.482;7.120;2023-06-22T17:56:50;27.60;;;24.60;;
1054;SDS011;516;51.482;7.120;2023-06-22T18:02:42;25.07;;;21.80;;
1054;SDS011;516;51.482;7.120;2023-06-22T18:08:29;29.00;;;25.90;;
1054;SDS011;516;51.482;7.120;2023-06-22T18:14:18;32.03;;;26.40;;
1054;SDS011;516;51.482;7.120;2023-06-22T18:20:07;35.30;;;26.50;;
1054;SDS011;516;51.482;7.120;2023-06-22T18:25:57;36.43;;;27.23;;
1054;SDS011;516;51.482;7.120;2023-06-22T18:31:45;32.60;;;29.10;;
1054;SDS011;516;51.482;7.120;2023-06-22T18:37:33;31.73;;;27.47;;
1054;SDS011;516;51.482;7.120;2023-06-22T18:43:23;13.60;;;12.20;;
1054;SDS011;516;51.482;7.120;2023-06-22T18:58:55;25.27;;;20.90;;
1054;SDS011;516;51.482;7.120;2023-06-22T19:04:44;28.53;;;25.57;;
1054;SDS011;516;51.482;7.120;2023-06-22T19:16:29;21.60;;;19.27;;
1054;SDS011;516;51.482;7.120;2023-06-22T19:22:17;26.63;;;23.10;;
1054;SDS011;516;51.482;7.120;2023-06-22T19:28:10;32.80;;;27.80;;
1054;SDS011;516;51.482;7.120;2023-06-22T19:34:01;31.80;;;27.37;;
1054;SDS011;516;51.482;7.120;2023-06-22T19:39:53;33.60;;;28.80;;
1054;SDS011;516;51.482;7.120;2023-06-22T19:45:41;30.73;;;27.53;;
1054;SDS011;516;51.482;7.120;2023-06-22T19:48:31;30.37;;;25.90;;
1054;SDS011;516;51.482;7.120;2023-06-22T19:51:01;28.17;;;25.27;;
1054;SDS011;516;51.482;7.120;2023-06-22T19:56:53;28.07;;;25.07;;
1054;SDS011;516;51.482;7.120;2023-06-22T20:02:41;26.40;;;23.47;;
1054;SDS011;516;51.482;7.120;2023-06-22T20:08:13;22.70;;;19.03;;
1054;SDS011;516;51.482;7.120;2023-06-22T20:14:02;7.73;;;5.10;;
1054;SDS011;516;51.482;7.120;2023-06-22T20:19:52;4.17;;;2.70;;
1054;SDS011;516;51.482;7.120;2023-06-22T20:25:41;4.37;;;3.83;;
1054;SDS011;516;51.482;7.120;2023-06-22T20:31:29;5.90;;;5.10;;
1054;SDS011;516;51.482;7.120;2023-06-22T20:37:17;11.97;;;8.60;;
1054;SDS011;516;51.482;7.120;2023-06-22T20:43:05;13.80;;;11.40;;
1054;SDS011;516;51.482;7.120;2023-06-22T20:58:49;8.03;;;6.80;;
1054;SDS011;516;51.482;7.120;2023-06-22T21:04:37;8.73;;;6.83;;
1054;SDS011;516;51.482;7.120;2023-06-22T21:10:26;5.77;;;5.27;;
1054;SDS011;516;51.482;7.120;2023-06-22T21:16:14;6.57;;;4.90;;
1054;SDS011;516;51.482;7.120;2023-06-22T21:22:01;7.30;;;6.60;;
1054;SDS011;516;51.482;7.120;2023-06-22T21:27:49;8.50;;;7.70;;
1054;SDS011;516;51.482;7.120;2023-06-22T21:33:37;8.73;;;7.83;;
1054;SDS011;516;51.482;7.120;2023-06-22T21:39:25;9.37;;;8.47;;
1054;SDS011;516;51.482;7.120;2023-06-22T21:45:12;8.30;;;7.57;;
1054;SDS011;516;51.482;7.120;2023-06-22T21:51:14;9.43;;;8.17;;
1054;SDS011;516;51.482;7.120;2023-06-22T21:57:01;8.50;;;7.30;;
1054;SDS011;516;51.482;7.120;2023-06-22T22:02:48;12.83;;;8.70;;
1054;SDS011;516;51.482;7.120;2023-06-22T22:08:35;8.23;;;7.40;;
1054;SDS011;516;51.482;7.120;2023-06-22T22:14:23;9.90;;;8.90;;
1054;SDS011;516;51.482;7.120;2023-06-22T22:20:10;11.30;;;7.97;;
1054;SDS011;516;51.482;7.120;2023-06-22T22:25:58;12.33;;;10.33;;
1054;SDS011;516;51.482;7.120;2023-06-22T22:31:46;12.20;;;10.90;;
1054;SDS011;516;51.482;7.120;2023-06-22T22:37:34;11.63;;;9.30;;
1054;SDS011;516;51.482;7.120;2023-06-22T22:43:22;14.70;;;10.67;;
1054;SDS011;516;51.482;7.120;2023-06-22T22:58:51;12.97;;;11.63;;
1054;SDS011;516;51.482;7.120;2023-06-22T23:04:39;13.07;;;11.67;;
1054;SDS011;516;51.482;7.120;2023-06-22T23:10:27;17.00;;;12.87;;
1054;SDS011;516;51.482;7.120;2023-06-22T23:16:15;12.37;;;10.90;;
1054;SDS011;516;51.482;7.120;2023-06-22T23:22:02;12.07;;;10.77;;
1054;SDS011;516;51.482;7.120;2023-06-22T23:27:50;11.40;;;9.83;;
1054;SDS011;516;51.482;7.120;2023-06-22T23:33:39;12.83;;;9.00;;
1054;SDS011;516;51.482;7.120;2023-06-22T23:39:27;13.37;;;9.23;;
1054;SDS011;516;51.482;7.120;2023-06-22T23:45:21;10.70;;;9.60;;
1054;SDS011;516;51.482;7.120;2023-06-22T23:50:56;11.03;;;9.23;;
1054;SDS011;516;51.482;7.120;2023-06-22T23:56:46;11.60;;;10.00;;
